Time;durP1;ratioP1;P1;durP2;ratioP2;P2;SDS_P1;SDS_P2;PMS_P1;PMS_P2;Temp;Humidity;BMP_temperature;BMP_pressure;BME280_temperature;BME280_humidity;BME280_pressure;Samples;Min_cycle;Max_cycle;Signal;HPM_P1;HPM_P2
2022/06/27 00:04:09;;;;;;;1.75;1.33;;;;;;;;;;10387687;28;20117;-75
2022/06/27 00:09:13;;;;;;;1.40;1.30;;;;;;;;;;10403514;28;20103;-74
2022/06/27 00:14:15;;;;;;;1.65;1.30;;;;;;;;;;10389868;28;20555;-76
2022/06/27 00:19:19;;;;;;;1.50;1.27;;;;;;;;;;10402297;28;20062;-76
2022/06/27 00:24:23;;;;;;;1.77;1.27;;;;;;;;;;10405030;28;20037;-74
2022/06/27 00:29:26;;;;;;;1.50;1.38;;;;;;;;;;10402890;28;20084;-76
2022/06/27 00:34:31;;;;;;;1.92;1.02;;;;;;;;;;10401853;28;20049;-75
2022/06/27 00:39:34;;;;;;;1.75;1.42;;;;;;;;;;10401799;28;20052;-74
2022/06/27 00:44:38;;;;;;;1.90;1.30;;;;;;;;;;10386603;28;20076;-74
2022/06/27 00:49:43;;;;;;;1.50;1.10;;;;;;;;;;10403312;28;20038;-74
2022/06/27 00:54:47;;;;;;;1.85;1.50;;;;;;;;;;10405229;28;20036;-75
2022/06/27 00:59:50;;;;;;;1.85;1.55;;;;;;;;;;10399020;28;20520;-75
2022/06/27 01:04:54;;;;;;;2.55;1.30;;;;;;;;;;10401104;28;20091;-74
2022/06/27 01:09:58;;;;;;;2.65;1.40;;;;;;;;;;10403993;28;20037;-75
2022/06/27 01:15:11;;;;;;;2.97;1.27;;;;;;;;;;10400213;28;20040;-75
2022/06/27 01:20:16;;;;;;;2.22;1.50;;;;;;;;;;10401329;28;20103;-76
2022/06/27 01:25:21;;;;;;;2.25;1.70;;;;;;;;;;10403137;28;20034;-76
2022/06/27 01:30:25;;;;;;;1.73;1.40;;;;;;;;;;10396584;28;20076;-77
2022/06/27 01:35:32;;;;;;;1.52;1.25;;;;;;;;;;10401264;28;20099;-76
2022/06/27 01:40:37;;;;;;;1.88;1.40;;;;;;;;;;10392740;28;20133;-74
2022/06/27 01:45:40;;;;;;;1.55;1.40;;;;;;;;;;10387261;28;20038;-76
2022/06/27 01:50:44;;;;;;;3.20;1.70;;;;;;;;;;10403951;28;20511;-75
2022/06/27 01:55:48;;;;;;;2.00;1.77;;;;;;;;;;10398376;28;20457;-75
2022/06/27 02:00:52;;;;;;;8.82;2.00;;;;;;;;;;10398040;28;20087;-75
2022/06/27 02:05:57;;;;;;;3.05;1.80;;;;;;;;;;10397253;28;20083;-75
2022/06/27 02:11:01;;;;;;;2.22;1.80;;;;;;;;;;10380260;28;20359;-75
2022/06/27 02:16:05;;;;;;;2.90;1.90;;;;;;;;;;10400304;28;20397;-75
2022/06/27 02:21:10;;;;;;;2.00;1.73;;;;;;;;;;10396018;28;20060;-76
2022/06/27 02:26:16;;;;;;;2.97;2.10;;;;;;;;;;10398494;28;20697;-74
2022/06/27 02:31:19;;;;;;;1.92;1.80;;;;;;;;;;10399294;28;20041;-74
2022/06/27 02:36:22;;;;;;;;;;;;;;;;;;10385162;28;20134;-73
2022/06/27 02:41:28;;;;;;;3.03;1.60;;;;;;;;;;10399341;28;19925;-75
2022/06/27 02:46:31;;;;;;;2.65;1.80;;;;;;;;;;10376615;28;20038;-74
2022/06/27 02:51:36;;;;;;;1.98;1.50;;;;;;;;;;10395861;28;20494;-75
2022/06/27 02:56:43;;;;;;;3.05;1.63;;;;;;;;;;10396011;28;20536;-75
2022/06/27 03:01:48;;;;;;;3.13;1.88;;;;;;;;;;10379429;28;20045;-75
2022/06/27 03:06:50;;;;;;;2.20;1.75;;;;;;;;;;10408895;28;20068;-75
2022/06/27 03:11:54;;;;;;;4.28;1.83;;;;;;;;;;10395829;28;20045;-74
2022/06/27 03:16:58;;;;;;;2.88;1.88;;;;;;;;;;10377786;28;20038;-75
2022/06/27 03:22:00;;;;;;;4.33;1.90;;;;;;;;;;10390655;28;20288;-74
2022/06/27 03:27:05;;;;;;;4.20;2.60;;;;;;;;;;10397132;28;20132;-75
2022/06/27 03:32:08;;;;;;;3.05;1.77;;;;;;;;;;10379572;28;20398;-74
2022/06/27 03:37:11;;;;;;;5.57;1.77;;;;;;;;;;10379057;28;20277;-74
2022/06/27 03:42:15;;;;;;;5.13;1.95;;;;;;;;;;10395957;28;20101;-74
2022/06/27 03:47:18;;;;;;;2.67;1.70;;;;;;;;;;10394859;28;20058;-74
2022/06/27 03:52:21;;;;;;;2.53;1.70;;;;;;;;;;10380656;28;20081;-76
2022/06/27 03:57:25;;;;;;;3.40;2.00;;;;;;;;;;10408878;28;20273;-75
2022/06/27 04:02:28;;;;;;;5.15;1.80;;;;;;;;;;10384781;28;20041;-75
2022/06/27 04:07:30;;;;;;;8.20;1.93;;;;;;;;;;10401486;28;20503;-75
2022/06/27 04:12:35;;;;;;;2.00;1.80;;;;;;;;;;10397588;28;20034;-75
2022/06/27 04:17:38;;;;;;;2.20;1.77;;;;;;;;;;10404399;28;20042;-76
2022/06/27 04:22:42;;;;;;;1.90;1.70;;;;;;;;;;10402571;28;20045;-77
2022/06/27 04:27:46;;;;;;;3.33;2.00;;;;;;;;;;10394481;28;20069;-72
2022/06/27 04:32:50;;;;;;;4.00;1.85;;;;;;;;;;10383718;28;20069;-76
2022/06/27 04:37:53;;;;;;;2.30;1.73;;;;;;;;;;10400885;28;20508;-71
2022/06/27 04:42:57;;;;;;;2.25;1.92;;;;;;;;;;10380622;28;20041;-76
2022/06/27 04:48:01;;;;;;;4.35;2.00;;;;;;;;;;10388414;28;20087;-74
2022/06/27 04:53:04;;;;;;;;;;;;;;;;;;10384609;28;20096;-76
2022/06/27 04:58:09;;;;;;;3.08;1.80;;;;;;;;;;10383023;28;19925;-75
2022/06/27 05:03:12;;;;;;;5.10;1.70;;;;;;;;;;10404028;28;20038;-76
2022/06/27 05:08:16;;;;;;;4.57;2.30;;;;;;;;;;10401712;28;20103;-76
2022/06/27 05:13:21;;;;;;;3.17;2.00;;;;;;;;;;10383145;28;20040;-77
2022/06/27 05:18:24;;;;;;;2.50;2.08;;;;;;;;;;10404140;28;20067;-76
2022/06/27 05:23:28;;;;;;;3.97;2.30;;;;;;;;;;10383414;28;20041;-76
2022/06/27 05:28:33;;;;;;;4.25;1.92;;;;;;;;;;10400413;28;20055;-75
2022/06/27 05:33:36;;;;;;;3.58;2.60;;;;;;;;;;10386328;28;20105;-75
2022/06/27 05:38:39;;;;;;;4.10;2.20;;;;;;;;;;10382120;28;20582;-76
2022/06/27 05:43:43;;;;;;;3.10;2.17;;;;;;;;;;10399986;28;20038;-75
2022/06/27 05:48:46;;;;;;;3.30;2.17;;;;;;;;;;10385843;28;20065;-76
2022/06/27 05:53:49;;;;;;;3.28;2.40;;;;;;;;;;10379127;28;20046;-74
2022/06/27 05:58:55;;;;;;;3.95;3.05;;;;;;;;;;10398701;28;20496;-75
2022/06/27 06:03:58;;;;;;;4.28;2.10;;;;;;;;;;10383579;28;20130;-77
2022/06/27 06:09:01;;;;;;;5.72;2.53;;;;;;;;;;10383729;28;20119;-74
2022/06/27 06:14:06;;;;;;;8.52;2.50;;;;;;;;;;10393329;28;20033;-75
2022/06/27 06:19:09;;;;;;;4.13;2.20;;;;;;;;;;10383329;28;20038;-74
2022/06/27 06:24:12;;;;;;;5.18;2.58;;;;;;;;;;10399616;28;20405;-74
2022/06/27 06:29:18;;;;;;;2.45;1.95;;;;;;;;;;10382220;28;20034;-77
2022/06/27 06:34:21;;;;;;;2.58;2.20;;;;;;;;;;10378426;28;20068;-76
2022/06/27 06:39:24;;;;;;;2.83;2.17;;;;;;;;;;10401131;28;20033;-75
2022/06/27 06:44:29;;;;;;;4.68;2.40;;;;;;;;;;10375483;28;20084;-75
2022/06/27 06:49:31;;;;;;;4.88;2.38;;;;;;;;;;10378798;28;20041;-75
2022/06/27 06:54:37;;;;;;;6.75;2.70;;;;;;;;;;10377335;28;20383;-74
2022/06/27 06:59:41;;;;;;;4.75;2.30;;;;;;;;;;10393037;28;20462;-75
2022/06/27 07:04:46;;;;;;;3.22;2.47;;;;;;;;;;10396147;28;20047;-77
2022/06/27 07:09:48;;;;;;;3.05;2.33;;;;;;;;;;10397259;28;20037;-76
2022/06/27 07:14:57;;;;;;;3.50;2.50;;;;;;;;;;10393247;28;20030;-76
2022/06/27 07:20:00;;;;;;;6.22;2.50;;;;;;;;;;10377886;28;20512;-74
2022/06/27 07:25:03;;;;;;;;;;;;;;;;;;10395209;28;20547;-73
2022/06/27 07:30:09;;;;;;;4.15;2.45;;;;;;;;;;10388718;28;19921;-75
2022/06/27 07:35:13;;;;;;;4.90;2.35;;;;;;;;;;10408002;28;20034;-75
2022/06/27 07:40:17;;;;;;;3.83;2.20;;;;;;;;;;10387404;28;20069;-75
2022/06/27 07:45:25;;;;;;;2.50;2.20;;;;;;;;;;10402159;28;20094;-75
2022/06/27 07:50:40;;;;;;;5.50;3.40;;;;;;;;;;10387663;28;20057;-77
2022/06/27 07:55:46;;;;;;;2.80;2.50;;;;;;;;;;10389734;28;20417;-75
2022/06/27 08:00:50;;;;;;;4.18;2.58;;;;;;;;;;10389390;28;20117;-76
2022/06/27 08:05:53;;;;;;;5.13;2.60;;;;;;;;;;10387759;28;20270;-75
2022/06/27 08:10:56;;;;;;;4.15;2.42;;;;;;;;;;10388071;28;20140;-74
2022/06/27 08:16:00;;;;;;;5.45;2.50;;;;;;;;;;10392839;28;20128;-75
2022/06/27 08:21:03;;;;;;;5.43;2.78;;;;;;;;;;10399296;28;20489;-76
2022/06/27 08:26:07;;;;;;;3.15;2.40;;;;;;;;;;10380989;28;20069;-76
2022/06/27 08:31:12;;;;;;;4.88;2.60;;;;;;;;;;10384511;28;20076;-74
2022/06/27 08:36:17;;;;;;;3.17;2.15;;;;;;;;;;10391127;28;20417;-77
2022/06/27 08:41:23;;;;;;;3.38;2.42;;;;;;;;;;10380414;28;20187;-75
2022/06/27 08:46:28;;;;;;;3.95;2.47;;;;;;;;;;10382557;28;20060;-76
2022/06/27 08:51:32;;;;;;;4.80;2.70;;;;;;;;;;10383221;28;20038;-75
2022/06/27 08:56:37;;;;;;;3.80;2.50;;;;;;;;;;10404114;28;20041;-77
2022/06/27 09:01:42;;;;;;;6.75;3.08;;;;;;;;;;10378186;28;20136;-77
2022/06/27 09:07:02;;;;;;;3.95;2.30;;;;;;;;;;10398468;28;20417;-76
2022/06/27 09:12:06;;;;;;;5.30;2.30;;;;;;;;;;10385043;28;20367;-78
2022/06/27 09:17:13;;;;;;;5.95;2.60;;;;;;;;;;10386307;28;20103;-76
2022/06/27 09:22:17;;;;;;;4.57;3.22;;;;;;;;;;10380261;28;20045;-79
2022/06/27 09:27:35;;;;;;;4.13;2.90;;;;;;;;;;10400910;28;20033;-79
2022/06/27 09:32:39;;;;;;;7.68;2.92;;;;;;;;;;10388041;28;20049;-76
2022/06/27 09:37:51;;;;;;;3.83;3.30;;;;;;;;;;10399856;28;20040;-77
2022/06/27 09:42:56;;;;;;;3.53;3.22;;;;;;;;;;10398923;28;20030;-76
2022/06/27 09:48:01;;;;;;;5.82;3.47;;;;;;;;;;10384073;28;20029;-76
2022/06/27 09:53:04;;;;;;;4.97;3.43;;;;;;;;;;10398713;28;20202;-78
2022/06/27 09:58:09;;;;;;;4.03;3.35;;;;;;;;;;10395107;28;20029;-77
2022/06/27 10:03:13;;;;;;;4.15;3.75;;;;;;;;;;10378354;28;20528;-76
2022/06/27 10:08:17;;;;;;;4.40;3.55;;;;;;;;;;10382472;28;20057;-78
2022/06/27 10:13:20;;;;;;;3.88;3.53;;;;;;;;;;10389416;28;20061;-76
2022/06/27 10:18:25;;;;;;;3.97;3.28;;;;;;;;;;10400802;28;20033;-77
2022/06/27 10:23:31;;;;;;;3.77;3.40;;;;;;;;;;10385706;28;20051;-75
2022/06/27 10:28:36;;;;;;;4.47;3.53;;;;;;;;;;10388165;28;20049;-75
2022/06/27 10:33:41;;;;;;;3.58;3.15;;;;;;;;;;10389115;28;20061;-75
2022/06/27 10:38:46;;;;;;;6.97;3.67;;;;;;;;;;10375985;28;20068;-72
2022/06/27 10:43:49;;;;;;;3.78;3.03;;;;;;;;;;10377704;28;20471;-76
2022/06/27 10:48:54;;;;;;;5.18;2.90;;;;;;;;;;10400867;28;20036;-73
2022/06/27 10:54:09;;;;;;;5.32;3.20;;;;;;;;;;10381822;28;20132;-75
2022/06/27 10:59:42;;;;;;;3.38;2.70;;;;;;;;;;10398876;28;20296;-77
2022/06/27 11:04:48;;;;;;;3.10;2.50;;;;;;;;;;10303857;28;20058;-75
2022/06/27 11:09:52;;;;;;;4.50;2.67;;;;;;;;;;10395190;28;20045;-75
2022/06/27 11:14:56;;;;;;;3.70;2.78;;;;;;;;;;10397166;28;20288;-76
2022/06/27 11:20:21;;;;;;;5.30;3.10;;;;;;;;;;10379178;28;20034;-75
2022/06/27 11:25:41;;;;;;;4.57;2.78;;;;;;;;;;10395504;28;20524;-76
2022/06/27 11:36:06;;;;;;;5.43;2.83;;;;;;;;;;10398362;28;20147;-76
2022/06/27 11:41:10;;;;;;;3.70;2.50;;;;;;;;;;10378329;28;20058;-78
2022/06/27 11:46:21;;;;;;;6.00;2.63;;;;;;;;;;10399253;28;20439;-76
2022/06/27 11:51:29;;;;;;;4.00;2.58;;;;;;;;;;10389892;28;20525;-76
2022/06/27 11:56:33;;;;;;;5.90;2.65;;;;;;;;;;10402272;28;20041;-77
2022/06/27 12:01:50;;;;;;;2.95;2.55;;;;;;;;;;10374448;28;20034;-77
2022/06/27 12:06:55;;;;;;;4.50;2.63;;;;;;;;;;10399087;28;20444;-74
2022/06/27 12:12:02;;;;;;;3.97;2.60;;;;;;;;;;10382044;28;20373;-73
2022/06/27 12:17:05;;;;;;;4.40;2.95;;;;;;;;;;10401487;28;20069;-76
2022/06/27 12:22:12;;;;;;;4.95;2.50;;;;;;;;;;10401420;28;20069;-77
2022/06/27 12:27:34;;;;;;;3.88;2.55;;;;;;;;;;10401400;28;20183;-75
2022/06/27 12:32:37;;;;;;;5.85;2.30;;;;;;;;;;10389879;28;20096;-76
2022/06/27 12:37:42;;;;;;;7.25;2.97;;;;;;;;;;10385208;28;20302;-76
2022/06/27 12:42:45;;;;;;;4.13;2.20;;;;;;;;;;10388950;28;20587;-74
2022/06/27 12:47:48;;;;;;;2.40;2.20;;;;;;;;;;10399354;28;20398;-74
2022/06/27 12:52:52;;;;;;;7.72;3.10;;;;;;;;;;10408110;28;20065;-77
2022/06/27 12:57:54;;;;;;;3.88;2.63;;;;;;;;;;10398410;28;20042;-74
2022/06/27 13:02:57;;;;;;;2.95;2.65;;;;;;;;;;10384732;28;20343;-74
2022/06/27 13:08:07;;;;;;;3.42;2.80;;;;;;;;;;10384212;28;20756;-76
2022/06/27 13:13:10;;;;;;;4.30;2.40;;;;;;;;;;10383712;28;20548;-77
2022/06/27 13:18:14;;;;;;;5.15;3.08;;;;;;;;;;10402512;28;20044;-77
2022/06/27 13:23:18;;;;;;;3.60;2.30;;;;;;;;;;10398509;28;20482;-75
2022/06/27 13:28:21;;;;;;;3.80;2.15;;;;;;;;;;10384493;28;20134;-75
2022/06/27 13:33:24;;;;;;;3.63;1.95;;;;;;;;;;10399702;28;20060;-75
2022/06/27 13:38:28;;;;;;;3.85;2.20;;;;;;;;;;10389265;28;20065;-75
2022/06/27 13:43:30;;;;;;;2.03;1.70;;;;;;;;;;10395940;28;20651;-75
2022/06/27 13:48:33;;;;;;;2.15;1.70;;;;;;;;;;10403542;28;20029;-74
2022/06/27 13:53:37;;;;;;;2.05;1.80;;;;;;;;;;10387440;28;20091;-76
2022/06/27 13:58:40;;;;;;;4.88;2.22;;;;;;;;;;10394118;28;20132;-74
2022/06/27 14:03:42;;;;;;;3.75;2.30;;;;;;;;;;10405767;28;20059;-76
2022/06/27 14:08:47;;;;;;;4.47;2.33;;;;;;;;;;10394975;28;20033;-74
2022/06/27 14:13:51;;;;;;;2.30;1.60;;;;;;;;;;10393602;28;20072;-76
2022/06/27 14:18:54;;;;;;;3.70;1.67;;;;;;;;;;10400990;28;20064;-74
2022/06/27 14:23:58;;;;;;;2.22;1.67;;;;;;;;;;10395926;28;20053;-75
2022/06/27 14:29:07;;;;;;;3.17;2.00;;;;;;;;;;10384003;28;20033;-75
2022/06/27 14:34:10;;;;;;;2.42;1.65;;;;;;;;;;10396143;28;20051;-75
2022/06/27 14:39:14;;;;;;;5.15;1.80;;;;;;;;;;10379377;28;20030;-75
2022/06/27 14:44:18;;;;;;;2.40;1.60;;;;;;;;;;10396962;28;20049;-73
2022/06/27 14:49:23;;;;;;;3.53;1.88;;;;;;;;;;10399733;28;20563;-77
2022/06/27 14:54:29;;;;;;;3.92;1.80;;;;;;;;;;10398799;28;20048;-75
2022/06/27 14:59:32;;;;;;;3.72;1.70;;;;;;;;;;10381918;28;20709;-76
2022/06/27 15:04:35;;;;;;;2.97;2.25;;;;;;;;;;10399191;28;20117;-76
2022/06/27 15:09:40;;;;;;;3.88;2.25;;;;;;;;;;10389837;28;20115;-75
2022/06/27 15:14:45;;;;;;;3.42;1.83;;;;;;;;;;10391992;28;20049;-77
2022/06/27 15:19:49;;;;;;;4.55;2.20;;;;;;;;;;10392379;28;20029;-76
2022/06/27 15:24:54;;;;;;;3.17;1.98;;;;;;;;;;10400050;28;20041;-75
2022/06/27 15:30:00;;;;;;;4.38;2.30;;;;;;;;;;10392335;28;20073;-76
2022/06/27 15:35:02;;;;;;;5.03;2.60;;;;;;;;;;10400402;28;20055;-76
2022/06/27 15:40:08;;;;;;;2.90;2.50;;;;;;;;;;10394634;28;20036;-76
2022/06/27 15:45:11;;;;;;;7.55;2.72;;;;;;;;;;10395976;28;20049;-76
2022/06/27 15:50:14;;;;;;;5.47;2.30;;;;;;;;;;10392109;28;20050;-77
2022/06/27 15:55:18;;;;;;;4.53;2.65;;;;;;;;;;10389584;28;20133;-76
2022/06/27 16:00:21;;;;;;;5.60;2.47;;;;;;;;;;10401517;28;20072;-76
2022/06/27 16:05:24;;;;;;;4.20;2.65;;;;;;;;;;10395740;28;20041;-75
2022/06/27 16:10:29;;;;;;;3.35;2.50;;;;;;;;;;10376570;28;20128;-75
2022/06/27 16:15:32;;;;;;;6.43;3.28;;;;;;;;;;10401327;28;20442;-76
2022/06/27 16:20:36;;;;;;;4.88;2.70;;;;;;;;;;10382228;28;20042;-75
2022/06/27 16:25:40;;;;;;;6.80;3.65;;;;;;;;;;10401206;28;20125;-73
2022/06/27 16:36:03;;;;;;;4.55;2.70;;;;;;;;;;10383838;28;20126;-76
2022/06/27 16:41:07;;;;;;;5.90;3.55;;;;;;;;;;10395953;28;20091;-76
2022/06/27 16:46:10;;;;;;;7.35;4.35;;;;;;;;;;10386328;28;20633;-75
2022/06/27 16:51:13;;;;;;;5.05;2.80;;;;;;;;;;10396070;28;20547;-73
2022/06/27 16:56:18;;;;;;;2.92;2.60;;;;;;;;;;10392681;28;20489;-72
2022/06/27 17:01:21;;;;;;;4.25;2.70;;;;;;;;;;10400956;28;20136;-70
2022/06/27 17:06:24;;;;;;;3.50;2.70;;;;;;;;;;10401567;28;20103;-70
2022/06/27 17:11:30;;;;;;;6.07;3.17;;;;;;;;;;10409895;28;20063;-71
2022/06/27 17:16:33;;;;;;;8.30;3.78;;;;;;;;;;10395931;28;20357;-71
2022/06/27 17:21:36;;;;;;;5.00;2.45;;;;;;;;;;10380235;28;20045;-72
2022/06/27 17:26:40;;;;;;;4.22;2.35;;;;;;;;;;10402599;28;20040;-70
2022/06/27 17:31:42;;;;;;;3.38;2.00;;;;;;;;;;10403898;28;20034;-74
2022/06/27 17:36:45;;;;;;;14.23;7.72;;;;;;;;;;10403379;28;20441;-76
2022/06/27 17:41:47;;;;;;;;;;;;;;;;;;10400971;28;20116;-70
2022/06/27 17:46:52;;;;;;;6.63;3.78;;;;;;;;;;10398786;28;20396;-72
2022/06/27 17:51:55;;;;;;;11.15;6.45;;;;;;;;;;10403883;28;20137;-72
2022/06/27 17:56:57;;;;;;;;;;;;;;;;;;10388760;28;20073;-72
2022/06/27 18:02:02;;;;;;;7.10;3.15;;;;;;;;;;10402488;28;19971;-72
2022/06/27 18:07:12;;;;;;;5.07;3.30;;;;;;;;;;10418181;28;20067;-76
2022/06/27 18:12:15;;;;;;;6.43;3.10;;;;;;;;;;10418050;28;20036;-73
2022/06/27 18:17:19;;;;;;;6.07;3.55;;;;;;;;;;10406838;28;20445;-73
2022/06/27 18:22:22;;;;;;;4.93;3.88;;;;;;;;;;10404814;28;20383;-73
2022/06/27 18:27:25;;;;;;;;;;;;;;;;;;10391555;28;20542;-72
2022/06/27 18:32:29;;;;;;;4.87;2.77;;;;;;;;;;10397352;28;19925;-74
2022/06/27 18:37:32;;;;;;;6.97;2.92;;;;;;;;;;10408207;28;20308;-74
2022/06/27 18:42:34;;;;;;;4.07;2.97;;;;;;;;;;10394789;28;20044;-72
2022/06/27 18:47:39;;;;;;;6.78;2.80;;;;;;;;;;10395924;28;20524;-73
2022/06/27 18:52:42;;;;;;;7.28;3.08;;;;;;;;;;10402208;28;20497;-73
2022/06/27 18:57:46;;;;;;;;;;;;;;;;;;10381872;28;20155;-70
2022/06/27 19:02:50;;;;;;;8.73;3.40;;;;;;;;;;10388028;28;20463;-73
2022/06/27 19:07:53;;;;;;;5.82;2.80;;;;;;;;;;10405594;28;20038;-71
2022/06/27 19:12:56;;;;;;;4.68;2.90;;;;;;;;;;10381762;28;20572;-70
2022/06/27 19:18:00;;;;;;;6.32;3.05;;;;;;;;;;10406323;28;20041;-72
2022/06/27 19:23:02;;;;;;;4.63;3.33;;;;;;;;;;10399321;28;20049;-73
2022/06/27 19:28:05;;;;;;;8.18;4.53;;;;;;;;;;10389764;28;20065;-75
2022/06/27 19:33:10;;;;;;;6.50;3.70;;;;;;;;;;10408280;28;20485;-74
2022/06/27 19:38:14;;;;;;;4.88;3.45;;;;;;;;;;10406603;28;20091;-78
2022/06/27 19:43:17;;;;;;;7.88;3.72;;;;;;;;;;10381378;28;20481;-78
2022/06/27 19:48:21;;;;;;;6.13;3.78;;;;;;;;;;10400695;28;20135;-75
2022/06/27 19:53:24;;;;;;;23.27;9.90;;;;;;;;;;10404839;28;20389;-75
2022/06/27 19:58:27;;;;;;;8.88;4.75;;;;;;;;;;10399005;28;20137;-76
2022/06/27 20:03:31;;;;;;;8.95;4.97;;;;;;;;;;10402445;28;20061;-76
2022/06/27 20:08:34;;;;;;;9.05;4.72;;;;;;;;;;10401205;28;20134;-75
2022/06/27 20:13:37;;;;;;;14.05;5.28;;;;;;;;;;10394148;28;20705;-76
2022/06/27 20:18:41;;;;;;;7.25;4.25;;;;;;;;;;10388663;28;20040;-76
2022/06/27 20:23:44;;;;;;;8.77;3.17;;;;;;;;;;10401681;28;20033;-76
2022/06/27 20:28:46;;;;;;;19.13;6.63;;;;;;;;;;10390496;28;20608;-78
2022/06/27 20:33:51;;;;;;;12.70;6.38;;;;;;;;;;10381976;28;20121;-77
2022/06/27 20:38:54;;;;;;;10.45;5.38;;;;;;;;;;10402793;28;20129;-77
2022/06/27 20:43:57;;;;;;;15.48;6.00;;;;;;;;;;10402047;28;20040;-77
2022/06/27 20:49:01;;;;;;;9.38;5.28;;;;;;;;;;10384915;28;20472;-77
2022/06/27 20:54:04;;;;;;;11.23;5.18;;;;;;;;;;10402804;28;20029;-75
2022/06/27 20:59:08;;;;;;;7.82;4.65;;;;;;;;;;10383009;28;20052;-78
2022/06/27 21:04:17;;;;;;;7.80;4.35;;;;;;;;;;10385962;28;20113;-76
2022/06/27 21:14:39;;;;;;;8.63;4.95;;;;;;;;;;10388191;28;20065;-75
2022/06/27 21:19:44;;;;;;;6.18;3.15;;;;;;;;;;10388662;28;20050;-73
2022/06/27 21:24:47;;;;;;;8.70;4.20;;;;;;;;;;10406002;28;20124;-76
2022/06/27 21:29:50;;;;;;;9.15;4.95;;;;;;;;;;10389956;28;20413;-76
2022/06/27 21:34:55;;;;;;;12.48;5.70;;;;;;;;;;10405777;28;20067;-75
2022/06/27 21:39:58;;;;;;;7.40;3.80;;;;;;;;;;10405809;28;20041;-76
2022/06/27 21:45:01;;;;;;;6.97;4.10;;;;;;;;;;10413591;28;20034;-75
2022/06/27 21:50:07;;;;;;;5.63;2.42;;;;;;;;;;10413385;28;20139;-75
2022/06/27 21:55:13;;;;;;;7.07;4.60;;;;;;;;;;10413254;28;20222;-76
2022/06/27 22:00:18;;;;;;;7.40;3.95;;;;;;;;;;10392317;28;20061;-75
2022/06/27 22:05:23;;;;;;;5.13;3.17;;;;;;;;;;10413211;28;20038;-75
2022/06/27 22:10:26;;;;;;;6.50;3.53;;;;;;;;;;10405476;28;20053;-75
2022/06/27 22:15:32;;;;;;;7.00;3.90;;;;;;;;;;10413466;28;20086;-76
2022/06/27 22:20:37;;;;;;;6.93;3.55;;;;;;;;;;10413668;28;20471;-73
2022/06/27 22:25:40;;;;;;;7.25;3.80;;;;;;;;;;10415587;28;20041;-75
2022/06/27 22:30:43;;;;;;;5.55;3.40;;;;;;;;;;10407360;28;20037;-75
2022/06/27 22:35:47;;;;;;;6.15;3.08;;;;;;;;;;10405302;28;20045;-75
2022/06/27 22:40:50;;;;;;;8.07;3.38;;;;;;;;;;10401696;28;20503;-72
2022/06/27 22:45:53;;;;;;;7.70;3.45;;;;;;;;;;10400349;28;20075;-74
2022/06/27 22:50:58;;;;;;;6.28;4.15;;;;;;;;;;10398525;28;20032;-75
2022/06/27 22:56:00;;;;;;;6.20;3.85;;;;;;;;;;10408215;28;20263;-74
2022/06/27 23:01:03;;;;;;;4.88;3.28;;;;;;;;;;10397755;28;20091;-74
2022/06/27 23:06:07;;;;;;;5.78;2.97;;;;;;;;;;10386328;28;20042;-75
2022/06/27 23:11:10;;;;;;;6.60;4.07;;;;;;;;;;10401562;28;20144;-74
2022/06/27 23:16:13;;;;;;;7.03;3.65;;;;;;;;;;10402963;28;20361;-76
2022/06/27 23:21:17;;;;;;;6.38;4.15;;;;;;;;;;10403372;28;20357;-73
2022/06/27 23:26:21;;;;;;;5.85;3.45;;;;;;;;;;10400050;28;20045;-73
2022/06/27 23:31:24;;;;;;;3.05;1.90;;;;;;;;;;10403745;28;20370;-73
2022/06/27 23:36:28;;;;;;;6.47;3.67;;;;;;;;;;10383521;28;20093;-74
2022/06/27 23:41:31;;;;;;;5.85;3.63;;;;;;;;;;10404032;28;20040;-75
2022/06/27 23:46:34;;;;;;;5.78;3.30;;;;;;;;;;10402629;28;20056;-75
2022/06/27 23:51:38;;;;;;;6.88;3.67;;;;;;;;;;10380941;28;20301;-74
2022/06/27 23:56:41;;;;;;;5.60;3.03;;;;;;;;;;10380105;28;20048;-74
